Time;durP1;ratioP1;P1;durP2;ratioP2;P2;SDS_P1;SDS_P2;PMS_P1;PMS_P2;Temp;Humidity;BMP_temperature;BMP_pressure;BME280_temperature;BME280_humidity;BME280_pressure;Samples;Min_cycle;Max_cycle;Signal;HPM_P1;HPM_P2
2023/02/26 00:01:30;;;;;;;21.73;13.30;;;;;;;7.66;85.23;99905.09;5009535;28;20041;-80
2023/02/26 00:03:57;;;;;;;38.45;15.82;;;;;;;7.76;85.33;99921.75;5025938;28;20480;-80
2023/02/26 00:06:23;;;;;;;30.50;15.70;;;;;;;7.66;85.31;99894.78;5026137;28;20128;-81
2023/02/26 00:08:49;;;;;;;31.15;14.85;;;;;;;7.75;85.14;99899.50;5025865;28;20034;-80
2023/02/26 00:11:14;;;;;;;23.38;14.70;;;;;;;7.57;85.08;99879.81;5025837;28;20104;-80
2023/02/26 00:13:41;;;;;;;41.97;16.92;;;;;;;7.60;85.83;99909.72;5010821;28;20497;-81
2023/02/26 00:16:26;;;;;;;34.85;14.70;;;;;;;7.54;85.87;99881.69;5027874;28;20029;-81
2023/02/26 00:18:53;;;;;;;28.98;12.25;;;;;;;7.60;86.25;99918.28;5013496;28;20446;-80
2023/02/26 00:21:19;;;;;;;32.70;14.82;;;;;;;7.57;86.48;99900.41;5013475;28;20523;-81
2023/02/26 00:23:45;;;;;;;27.52;9.02;;;;;;;7.47;86.63;99888.84;5013203;28;20121;-80
2023/02/26 00:26:10;;;;;;;33.92;13.63;;;;;;;7.52;86.78;99902.34;5029539;28;20037;-80
2023/02/26 00:28:36;;;;;;;23.85;11.73;;;;;;;7.46;87.02;99902.63;5013229;28;20101;-80
2023/02/26 00:31:02;;;;;;;24.05;12.32;;;;;;;7.34;87.11;99867.19;5029925;28;20026;-80
2023/02/26 00:33:27;;;;;;;30.83;15.60;;;;;;;7.47;87.02;99904.31;5013389;28;20060;-81
2023/02/26 00:35:56;;;;;;;28.02;12.50;;;;;;;7.39;87.20;99889.25;5029756;28;20057;-81
2023/02/26 00:38:21;;;;;;;31.27;11.05;;;;;;;7.43;86.68;99877.06;5029243;28;20037;-80
2023/02/26 00:40:48;;;;;;;21.67;10.55;;;;;;;7.45;86.60;99893.25;5013213;28;20030;-81
2023/02/26 00:43:13;;;;;;;26.70;10.95;;;;;;;7.37;87.30;99885.06;5029985;28;20022;-80
2023/02/26 00:46:01;;;;;;;17.73;10.40;;;;;;;7.42;86.96;99881.38;5029452;28;20080;-80
2023/02/26 00:48:51;;;;;;;23.10;9.13;;;;;;;7.29;87.47;99866.59;5005431;28;20433;-81
2023/02/26 00:51:28;;;;;;;17.50;8.27;;;;;;;7.38;87.18;99863.59;5029570;28;20034;-80
2023/02/26 00:54:17;;;;;;;27.98;8.80;;;;;;;7.10;87.27;99818.59;5012569;28;20038;-80
2023/02/26 00:56:42;;;;;;;12.27;7.60;;;;;;;7.36;87.45;99867.94;5027910;28;20030;-81
2023/02/26 00:59:08;;;;;;;26.02;8.50;;;;;;;7.30;87.18;99850.25;5029403;28;20025;-80
2023/02/26 01:01:33;;;;;;;17.90;10.00;;;;;;;7.43;87.38;99852.16;5029321;28;20049;-80
2023/02/26 01:03:59;;;;;;;8.20;5.70;;;;;;;7.44;87.15;99858.13;5029339;28;20486;-80
2023/02/26 01:06:29;;;;;;;23.52;10.50;;;;;;;7.32;87.67;99851.84;5029090;28;20037;-81
2023/02/26 01:09:04;;;;;;;18.05;8.95;;;;;;;7.21;87.75;99835.25;5012444;28;20642;-81
2023/02/26 01:11:32;;;;;;;18.80;9.68;;;;;;;7.32;87.40;99840.72;5028857;28;20073;-80
2023/02/26 01:13:57;;;;;;;18.35;8.15;;;;;;;7.29;87.46;99822.88;5028853;28;20075;-80
2023/02/26 01:16:26;;;;;;;20.08;8.88;;;;;;;7.38;87.13;99822.41;5028752;28;20034;-81
2023/02/26 01:18:59;;;;;;;31.08;14.18;;;;;;;7.38;87.25;99810.38;5012447;28;20129;-80
2023/02/26 01:21:36;;;;;;;17.10;10.93;;;;;;;7.45;87.10;99813.47;5012446;28;20040;-80
2023/02/26 01:24:04;;;;;;;16.98;9.05;;;;;;;7.31;87.20;99800.47;5028891;28;20037;-81
2023/02/26 01:26:30;;;;;;;19.10;9.45;;;;;;;7.35;87.17;99812.25;5028425;28;20025;-80
2023/02/26 01:28:55;;;;;;;15.98;10.27;;;;;;;7.30;87.47;99803.94;5028857;28;20497;-80
2023/02/26 01:31:24;;;;;;;29.85;10.27;;;;;;;7.36;87.28;99819.06;4995959;28;20021;-81
2023/02/26 01:34:17;;;;;;;17.02;8.48;;;;;;;7.31;87.51;99810.75;5013543;28;20033;-81
2023/02/26 01:36:46;;;;;;;22.13;11.15;;;;;;;7.34;87.49;99808.03;5025127;28;20079;-81
2023/02/26 01:39:30;;;;;;;19.13;8.93;;;;;;;7.37;87.04;99789.84;5028690;28;20048;-80
2023/02/26 01:42:09;;;;;;;14.57;8.73;;;;;;;7.35;86.93;99787.34;5027957;28;20465;-80
2023/02/26 01:44:41;;;;;;;16.17;8.20;;;;;;;7.21;86.84;99773.50;5011978;28;20037;-81
2023/02/26 01:47:13;;;;;;;13.40;8.52;;;;;;;7.28;87.55;99798.03;5028481;28;20061;-80
2023/02/26 01:49:38;;;;;;;14.90;9.57;;;;;;;7.30;87.96;99783.34;5028285;28;20030;-81
2023/02/26 01:52:05;;;;;;;15.40;9.98;;;;;;;7.37;87.69;99788.09;4994948;28;20402;-80
2023/02/26 01:54:32;;;;;;;16.67;9.02;;;;;;;7.18;87.35;99770.19;5011783;28;20026;-81
2023/02/26 01:57:20;;;;;;;28.33;12.05;;;;;;;7.28;87.58;99782.59;5028402;28;20498;-80
2023/02/26 01:59:47;;;;;;;20.50;7.63;;;;;;;7.19;87.25;99760.72;5025272;28;20453;-80
2023/02/26 02:02:16;;;;;;;15.45;10.20;;;;;;;7.35;87.29;99796.81;5011763;28;20085;-80
2023/02/26 02:04:42;;;;;;;24.52;10.93;;;;;;;7.36;87.29;99798.47;5028116;28;20033;-80
2023/02/26 02:07:07;;;;;;;14.48;8.02;;;;;;;7.36;87.11;99789.03;5011345;28;20413;-81
2023/02/26 02:09:33;;;;;;;24.85;9.63;;;;;;;7.29;86.99;99766.25;5028343;28;20033;-81
2023/02/26 02:12:39;;;;;;;16.60;9.60;;;;;;;7.33;86.52;99788.34;5011479;28;20497;-81
2023/02/26 02:15:12;;;;;;;15.20;9.70;;;;;;;7.38;87.00;99799.25;5025984;28;20397;-81
2023/02/26 02:17:49;;;;;;;12.35;7.78;;;;;;;7.43;87.08;99799.84;5011317;28;20416;-81
2023/02/26 02:20:23;;;;;;;24.20;9.95;;;;;;;7.41;86.55;99819.69;5012246;28;20022;-80
2023/02/26 02:23:24;;;;;;;19.65;9.05;;;;;;;7.38;86.68;99801.84;5027803;28;20064;-81
2023/02/26 02:26:04;;;;;;;14.18;8.05;;;;;;;7.37;86.97;99800.16;4916587;29;20590;-81
2023/02/26 02:28:39;;;;;;;13.20;7.57;;;;;;;7.34;87.60;99797.72;5003869;28;20044;-81
2023/02/26 02:31:10;;;;;;;15.57;10.55;;;;;;;7.30;87.43;99809.91;5012392;28;20311;-81
2023/02/26 02:33:48;;;;;;;19.67;8.53;;;;;;;7.28;88.08;99809.16;5027823;28;20497;-81
2023/02/26 02:36:35;;;;;;;14.63;8.13;;;;;;;7.37;88.17;99787.28;5027210;28;20265;-80
2023/02/26 02:39:10;;;;;;;23.90;10.10;;;;;;;7.06;88.20;99736.50;5011492;28;20440;-81
2023/02/26 02:41:39;;;;;;;18.10;8.30;;;;;;;7.30;88.15;99788.50;5011035;28;20453;-80
2023/02/26 02:44:08;;;;;;;21.63;8.95;;;;;;;7.38;87.87;99796.69;5027778;28;20448;-81
2023/02/26 02:46:35;;;;;;;17.95;8.63;;;;;;;7.37;87.90;99795.00;5027271;28;20113;-81
2023/02/26 02:49:03;;;;;;;19.20;11.25;;;;;;;7.29;88.04;99776.56;5026749;28;20428;-81
2023/02/26 02:51:34;;;;;;;15.95;7.70;;;;;;;7.04;88.35;99731.44;5010582;28;20595;-81
2023/02/26 02:54:21;;;;;;;17.35;7.47;;;;;;;7.16;87.99;99746.25;5011073;28;20037;-80
2023/02/26 02:56:50;;;;;;;22.83;10.23;;;;;;;7.23;88.18;99766.53;5010829;28;20030;-81
2023/02/26 02:59:36;;;;;;;16.27;8.55;;;;;;;7.38;87.93;99796.69;5026822;28;20412;-81
2023/02/26 03:02:20;;;;;;;19.10;8.90;;;;;;;7.39;87.66;99798.34;5027177;28;20030;-81
2023/02/26 03:04:45;;;;;;;14.02;7.75;;;;;;;7.35;87.65;99786.53;5011757;28;20030;-81
2023/02/26 03:07:11;;;;;;;28.02;9.05;;;;;;;7.38;87.54;99806.97;5011368;28;20111;-81
2023/02/26 03:09:36;;;;;;;17.67;10.07;;;;;;;7.27;88.02;99798.94;5027283;28;20034;-80
2023/02/26 03:12:02;;;;;;;26.17;9.65;;;;;;;7.18;87.64;99775.34;5010650;28;20041;-80
2023/02/26 03:14:27;;;;;;;16.13;7.80;;;;;;;7.29;87.49;99786.84;5026901;28;20029;-80
2023/02/26 03:17:05;;;;;;;20.73;9.30;;;;;;;7.30;87.61;99788.50;5026804;28;20109;-81
2023/02/26 03:19:54;;;;;;;19.73;10.10;;;;;;;7.35;87.78;99807.94;5011199;28;20053;-81
2023/02/26 03:22:35;;;;;;;17.15;7.72;;;;;;;7.38;87.59;99804.41;5011554;28;20022;-80
2023/02/26 03:25:15;;;;;;;17.92;8.00;;;;;;;7.39;87.46;99814.63;5026642;28;20049;-81
2023/02/26 03:27:48;;;;;;;18.45;10.02;;;;;;;7.42;87.26;99803.34;5011403;28;20184;-81
2023/02/26 03:30:19;;;;;;;27.95;9.63;;;;;;;7.34;87.15;99790.00;5026619;28;20025;-81
2023/02/26 03:32:56;;;;;;;17.50;7.28;;;;;;;7.41;87.46;99806.81;5026587;28;20034;-80
2023/02/26 03:35:45;;;;;;;16.15;10.40;;;;;;;7.54;87.07;99807.88;5026415;28;20034;-81
2023/02/26 03:38:14;;;;;;;15.55;8.85;;;;;;;7.47;86.68;99785.91;5026889;28;20025;-80
2023/02/26 03:40:48;;;;;;;14.15;9.52;;;;;;;7.23;86.50;99766.53;5025934;28;20339;-80
2023/02/26 03:43:36;;;;;;;15.88;9.35;;;;;;;7.42;87.21;99813.63;5026464;28;20025;-80
2023/02/26 03:46:04;;;;;;;15.75;10.13;;;;;;;7.42;87.03;99801.59;5026422;28;20026;-81
2023/02/26 03:48:29;;;;;;;16.60;9.52;;;;;;;7.41;87.26;99797.38;5025642;28;20030;-80
2023/02/26 03:50:59;;;;;;;17.63;10.70;;;;;;;7.51;86.68;99800.31;5026292;28;20021;-81
2023/02/26 03:53:27;;;;;;;15.48;8.38;;;;;;;7.42;86.01;99767.31;5024921;28;20053;-80
2023/02/26 03:56:04;;;;;;;13.23;7.10;;;;;;;7.52;86.45;99777.97;5025544;28;20079;-81
2023/02/26 03:58:30;;;;;;;22.20;9.38;;;;;;;7.49;85.72;99794.41;5025314;28;20030;-80
2023/02/26 04:01:04;;;;;;;15.20;8.57;;;;;;;7.37;86.18;99769.25;5025187;28;20072;-81
2023/02/26 04:03:34;;;;;;;18.75;8.18;;;;;;;7.39;85.82;99772.63;5025371;28;20030;-81
2023/02/26 04:05:59;;;;;;;15.95;8.00;;;;;;;7.35;86.34;99794.25;5008705;28;20095;-81
2023/02/26 04:08:25;;;;;;;17.73;10.90;;;;;;;7.46;86.06;99799.69;5025250;28;20034;-81
2023/02/26 04:10:58;;;;;;;19.60;8.75;;;;;;;7.34;86.14;99810.59;5009082;28;20044;-81
2023/02/26 04:13:24;;;;;;;23.13;10.63;;;;;;;7.10;86.48;99803.16;5025037;28;20030;-80
2023/02/26 04:15:49;;;;;;;15.88;8.60;;;;;;;7.21;87.40;99806.97;4992055;28;20041;-81
2023/02/26 04:18:14;;;;;;;19.48;10.77;;;;;;;7.26;86.32;99804.97;5025489;28;20057;-80
2023/02/26 04:20:40;;;;;;;13.73;7.32;;;;;;;7.30;86.88;99793.66;4992323;28;20030;-80
2023/02/26 04:23:05;;;;;;;15.80;7.75;;;;;;;7.27;87.12;99798.94;5024920;28;20056;-80
2023/02/26 04:25:31;;;;;;;16.38;8.63;;;;;;;7.18;87.05;99777.91;5008468;28;20036;-81
2023/02/26 04:27:56;;;;;;;30.83;9.63;;;;;;;7.23;86.93;99803.41;5008500;28;20591;-80
2023/02/26 04:30:22;;;;;;;18.70;7.47;;;;;;;7.18;86.56;99795.91;5008200;28;20025;-80
2023/02/26 04:32:47;;;;;;;15.65;8.85;;;;;;;7.19;86.99;99786.47;5024752;28;20033;-80
2023/02/26 04:35:13;;;;;;;24.15;8.32;;;;;;;7.24;87.02;99806.81;5008458;28;20026;-80
2023/02/26 04:37:38;;;;;;;26.33;9.65;;;;;;;7.22;86.48;99803.47;5025184;28;20034;-81
2023/02/26 04:40:04;;;;;;;22.42;8.07;;;;;;;7.23;86.60;99789.69;5008376;28;20029;-81
2023/02/26 04:42:30;;;;;;;18.90;8.68;;;;;;;7.19;86.69;99779.56;5024855;28;20036;-81
2023/02/26 04:44:55;;;;;;;15.00;8.85;;;;;;;7.19;86.20;99777.00;5024460;28;20026;-81
2023/02/26 04:47:21;;;;;;;16.30;8.38;;;;;;;7.11;86.65;99766.25;5024480;28;20030;-81
2023/02/26 04:49:46;;;;;;;14.77;9.48;;;;;;;7.06;86.57;99755.31;5024824;28;20038;-80
2023/02/26 04:52:11;;;;;;;14.15;5.82;;;;;;;7.08;86.62;99775.81;4979775;28;1303330;-81
2023/02/26 04:54:37;;;;;;;13.27;8.60;;;;;;;7.02;87.01;99812.13;5025680;28;20041;-80
2023/02/26 04:57:03;;;;;;;13.48;7.57;;;;;;;6.99;86.66;99781.44;5025349;28;20037;-80
2023/02/26 04:59:28;;;;;;;17.25;7.45;;;;;;;6.99;87.33;99786.56;5008812;28;20033;-81
2023/02/26 05:01:54;;;;;;;13.02;6.88;;;;;;;7.01;86.93;99795.88;5010393;28;20030;-81
2023/02/26 05:04:19;;;;;;;12.30;8.20;;;;;;;6.85;87.46;99774.34;5012747;28;20034;-81
2023/02/26 05:06:44;;;;;;;15.50;7.68;;;;;;;6.85;87.57;99793.19;5012662;28;20026;-80
2023/02/26 05:09:10;;;;;;;15.50;7.85;;;;;;;6.89;87.60;99763.03;5029195;28;20029;-81
2023/02/26 05:11:35;;;;;;;11.57;6.70;;;;;;;6.91;87.65;99776.66;5029115;28;20413;-80
2023/02/26 05:14:01;;;;;;;13.95;8.63;;;;;;;6.89;87.93;99761.31;5028839;28;20029;-80
2023/02/26 05:16:26;;;;;;;9.90;6.18;;;;;;;6.88;87.29;99807.63;5029150;28;20030;-80
2023/02/26 05:18:52;;;;;;;21.58;9.80;;;;;;;6.80;87.08;99779.72;5028979;28;20456;-80
2023/02/26 05:21:17;;;;;;;15.10;8.95;;;;;;;6.79;87.59;99766.94;5028784;28;20030;-80
2023/02/26 05:23:43;;;;;;;20.85;7.80;;;;;;;6.84;86.99;99786.38;5028911;28;20041;-81
2023/02/26 05:26:08;;;;;;;13.43;9.15;;;;;;;6.86;87.01;99760.59;5013556;28;20452;-81
2023/02/26 05:28:35;;;;;;;14.40;9.05;;;;;;;6.81;87.10;99755.69;5028668;28;20030;-80
2023/02/26 05:31:01;;;;;;;25.10;9.00;;;;;;;6.82;87.21;99783.06;5028779;28;20532;-80
2023/02/26 05:33:26;;;;;;;10.73;7.72;;;;;;;6.71;87.44;99776.75;5012285;28;20030;-80
2023/02/26 05:35:52;;;;;;;14.18;6.05;;;;;;;6.87;87.03;99821.38;5012159;28;20033;-81
2023/02/26 05:38:17;;;;;;;17.30;7.43;;;;;;;6.75;87.30;99780.84;5028800;28;20108;-80
2023/02/26 05:40:43;;;;;;;20.10;8.30;;;;;;;6.79;87.27;99801.19;5012134;28;20467;-81
2023/02/26 05:43:08;;;;;;;10.20;7.05;;;;;;;6.76;87.08;99801.31;5011777;28;20026;-80
2023/02/26 05:45:34;;;;;;;14.15;8.05;;;;;;;6.74;87.54;99804.88;5028431;28;20444;-81
2023/02/26 05:47:59;;;;;;;9.93;7.25;;;;;;;6.85;87.65;99807.78;5011709;28;20496;-81
2023/02/26 05:50:25;;;;;;;11.75;7.65;;;;;;;6.78;87.92;99786.66;5011796;28;20030;-81
2023/02/26 05:52:51;;;;;;;17.45;9.20;;;;;;;6.93;87.47;99805.69;5011675;28;20057;-81
2023/02/26 05:55:16;;;;;;;9.65;5.38;;;;;;;6.90;87.23;99780.13;5028170;28;20113;-80
2023/02/26 05:57:42;;;;;;;18.38;8.30;;;;;;;7.02;86.89;99801.84;5028022;28;20080;-80
2023/02/26 06:00:08;;;;;;;16.02;8.32;;;;;;;6.98;87.44;99793.47;5028272;28;20039;-80
2023/02/26 06:02:33;;;;;;;12.00;8.50;;;;;;;6.81;87.55;99745.41;5027786;28;20390;-81
2023/02/26 06:04:59;;;;;;;16.60;10.35;;;;;;;6.89;87.46;99752.75;5028128;28;20064;-80
2023/02/26 06:07:24;;;;;;;17.55;11.80;;;;;;;7.04;87.68;99782.88;5011671;28;20029;-80
2023/02/26 06:09:50;;;;;;;15.00;8.10;;;;;;;7.08;87.70;99794.69;5028081;28;20496;-80
2023/02/26 06:12:15;;;;;;;21.90;12.02;;;;;;;7.08;87.45;99799.84;5027637;28;20481;-80
2023/02/26 06:14:41;;;;;;;17.95;8.23;;;;;;;7.15;87.40;99796.03;5027028;28;20421;-81
2023/02/26 06:17:06;;;;;;;14.45;8.15;;;;;;;7.19;86.37;99776.16;5011383;28;20056;-81
2023/02/26 06:19:32;;;;;;;13.15;8.60;;;;;;;7.37;85.62;99784.69;5028056;28;20037;-80
2023/02/26 06:21:57;;;;;;;26.27;11.10;;;;;;;7.28;86.30;99783.44;5027667;28;20133;-81
2023/02/26 06:24:23;;;;;;;15.98;8.48;;;;;;;7.33;86.30;99783.19;5011125;28;20030;-80
2023/02/26 06:26:48;;;;;;;15.68;9.68;;;;;;;7.27;86.40;99804.91;5027374;28;20096;-81
2023/02/26 06:29:14;;;;;;;18.58;8.55;;;;;;;7.26;86.46;99802.41;5027764;28;20535;-80
2023/02/26 06:31:39;;;;;;;34.25;12.50;;;;;;;7.34;86.56;99815.75;5011124;28;20110;-81
2023/02/26 06:34:05;;;;;;;38.50;10.02;;;;;;;7.32;86.33;99790.09;4994712;28;20022;-80
2023/02/26 06:36:30;;;;;;;15.20;8.63;;;;;;;7.42;86.25;99790.47;4994873;28;20040;-81
2023/02/26 06:38:56;;;;;;;14.15;8.30;;;;;;;7.43;86.28;99794.72;5027370;28;20506;-80
2023/02/26 06:41:21;;;;;;;19.27;11.93;;;;;;;7.45;86.42;99804.00;5026901;28;20030;-80
2023/02/26 06:43:46;;;;;;;15.52;9.13;;;;;;;7.46;86.41;99803.09;4994631;28;20486;-81
2023/02/26 06:46:12;;;;;;;22.58;10.73;;;;;;;7.50;85.98;99790.09;5027159;28;20390;-81
2023/02/26 06:48:37;;;;;;;14.23;7.97;;;;;;;7.54;86.01;99792.44;5010646;28;20038;-80
2023/02/26 06:51:03;;;;;;;15.18;8.15;;;;;;;7.62;85.83;99792.88;5010315;28;20429;-80
2023/02/26 06:53:28;;;;;;;15.27;9.63;;;;;;;7.71;86.02;99819.91;5026964;28;20052;-80
2023/02/26 06:55:54;;;;;;;23.73;11.13;;;;;;;7.81;85.64;99803.09;5026628;28;20507;-80
2023/02/26 06:58:19;;;;;;;18.45;9.75;;;;;;;7.80;85.69;99798.88;5010700;28;20517;-80
2023/02/26 07:00:45;;;;;;;19.83;10.15;;;;;;;7.84;85.61;99802.94;5010524;28;20026;-80
2023/02/26 07:03:12;;;;;;;20.05;9.20;;;;;;;7.89;85.26;99807.88;5010689;28;20107;-80
2023/02/26 07:05:38;;;;;;;19.30;9.20;;;;;;;7.80;85.66;99801.44;5026722;28;20037;-81
2023/02/26 07:08:04;;;;;;;22.75;12.05;;;;;;;7.76;85.37;99787.88;5010540;28;20034;-80
2023/02/26 07:10:31;;;;;;;24.83;13.32;;;;;;;7.72;85.83;99786.38;5026563;28;20180;-80
2023/02/26 07:12:56;;;;;;;28.60;13.75;;;;;;;7.85;85.53;99801.19;5010254;28;20149;-80
2023/02/26 07:15:22;;;;;;;22.60;11.55;;;;;;;7.75;85.64;99775.91;5026760;28;20409;-81
2023/02/26 07:17:47;;;;;;;20.38;11.73;;;;;;;7.91;86.02;99811.19;5026676;28;20022;-80
2023/02/26 07:20:13;;;;;;;24.27;13.75;;;;;;;7.81;86.08;99802.28;5010588;28;20092;-80
2023/02/26 07:22:38;;;;;;;25.15;9.98;;;;;;;7.98;86.27;99797.94;5026782;28;20030;-80
2023/02/26 07:25:04;;;;;;;23.98;11.10;;;;;;;7.89;85.56;99787.28;5026089;28;20026;-80
2023/02/26 07:27:32;;;;;;;30.55;11.50;;;;;;;8.05;85.80;99826.75;5010017;28;20036;-80
2023/02/26 07:29:58;;;;;;;21.80;11.60;;;;;;;8.06;85.77;99828.44;5010007;28;20420;-80
2023/02/26 07:32:23;;;;;;;14.40;10.07;;;;;;;8.15;85.88;99820.22;4993786;28;20029;-80
2023/02/26 07:34:48;;;;;;;22.88;8.57;;;;;;;8.27;85.52;99813.63;5026553;28;20030;-80
2023/02/26 07:37:14;;;;;;;16.80;9.40;;;;;;;8.29;85.08;99825.50;5010938;28;20033;-80
2023/02/26 07:39:39;;;;;;;16.92;9.80;;;;;;;8.22;85.47;99829.31;5009619;28;20033;-81
2023/02/26 07:42:05;;;;;;;22.15;11.30;;;;;;;8.32;86.04;99838.22;5026415;28;20473;-81
2023/02/26 07:44:30;;;;;;;16.60;10.73;;;;;;;8.53;86.18;99836.28;5010215;28;20034;-80
2023/02/26 07:46:56;;;;;;;23.98;11.73;;;;;;;8.65;85.55;99832.22;5009771;28;20030;-80
2023/02/26 07:49:21;;;;;;;18.70;10.88;;;;;;;8.63;85.60;99826.34;5026005;28;20034;-80
2023/02/26 07:51:47;;;;;;;21.48;8.95;;;;;;;8.66;85.87;99810.72;4993320;28;20053;-80
2023/02/26 07:54:12;;;;;;;17.92;9.43;;;;;;;9.00;85.31;99824.34;5025726;28;20416;-80
2023/02/26 07:56:40;;;;;;;13.88;9.20;;;;;;;9.11;84.30;99822.00;5025884;28;20030;-80
2023/02/26 07:59:05;;;;;;;16.98;9.15;;;;;;;9.22;84.00;99804.16;5026288;28;20113;-80
2023/02/26 08:01:31;;;;;;;26.38;12.38;;;;;;;9.40;83.68;99808.28;5026116;28;20113;-80
2023/02/26 08:03:56;;;;;;;26.52;11.60;;;;;;;9.36;82.98;99800.81;5026125;28;20033;-80
2023/02/26 08:06:21;;;;;;;18.30;9.85;;;;;;;9.52;82.97;99803.34;5025775;28;20497;-80
2023/02/26 08:08:47;;;;;;;21.17;10.68;;;;;;;9.67;82.18;99799.88;5009180;28;20033;-80
2023/02/26 08:11:12;;;;;;;17.02;8.73;;;;;;;9.71;81.20;99809.94;5025835;28;20033;-80
2023/02/26 08:13:38;;;;;;;18.80;9.25;;;;;;;9.84;82.31;99812.66;5026059;28;20096;-80
2023/02/26 08:16:03;;;;;;;28.02;10.05;;;;;;;9.91;81.97;99826.84;5010818;28;20037;-80
2023/02/26 08:18:29;;;;;;;17.05;8.18;;;;;;;9.98;82.24;99804.06;5009611;28;20481;-80
2023/02/26 08:20:54;;;;;;;17.42;9.05;;;;;;;10.03;81.46;99817.56;5026248;28;20030;-80
2023/02/26 08:23:20;;;;;;;29.20;11.65;;;;;;;9.98;81.79;99823.00;5025632;28;20513;-80
2023/02/26 08:25:45;;;;;;;26.00;14.30;;;;;;;9.98;81.47;99815.25;5009431;28;20477;-80
2023/02/26 08:28:11;;;;;;;24.45;12.27;;;;;;;9.93;81.60;99812.13;5010757;28;20038;-80
2023/02/26 08:30:36;;;;;;;25.08;11.75;;;;;;;10.14;81.10;99827.25;5025901;28;20095;-80
2023/02/26 08:33:02;;;;;;;22.58;11.93;;;;;;;9.98;82.65;99820.41;5009736;28;20045;-80
2023/02/26 08:35:27;;;;;;;33.55;14.75;;;;;;;9.87;82.72;99803.88;5025956;28;20505;-80
2023/02/26 08:37:53;;;;;;;25.17;11.65;;;;;;;10.21;82.48;99837.13;5028469;28;20029;-80
2023/02/26 08:40:19;;;;;;;29.30;12.55;;;;;;;10.30;82.58;99815.09;5029765;28;20026;-80
2023/02/26 08:42:44;;;;;;;25.27;12.95;;;;;;;10.26;81.82;99813.63;5029648;28;20026;-80
2023/02/26 08:45:10;;;;;;;20.10;11.98;;;;;;;10.45;81.63;99828.84;5029406;28;20485;-80
2023/02/26 08:47:36;;;;;;;27.13;15.13;;;;;;;10.27;81.02;99817.88;5029645;28;20040;-80
2023/02/26 08:50:02;;;;;;;29.45;12.77;;;;;;;10.42;80.93;99849.72;5029440;28;20030;-80
2023/02/26 08:52:27;;;;;;;29.02;15.43;;;;;;;10.53;81.29;99843.00;5012431;28;20488;-80
2023/02/26 08:54:53;;;;;;;31.38;12.77;;;;;;;10.59;81.44;99816.72;5013071;28;20489;-80
2023/02/26 08:57:18;;;;;;;23.38;12.30;;;;;;;10.66;80.57;99839.63;5013051;28;20026;-80
2023/02/26 08:59:44;;;;;;;24.73;12.15;;;;;;;10.33;79.96;99800.25;4996458;28;20080;-80
2023/02/26 09:02:10;;;;;;;40.97;17.02;;;;;;;10.56;80.68;99816.94;5029387;28;20084;-80
2023/02/26 09:04:36;;;;;;;28.77;14.20;;;;;;;10.57;79.20;99823.75;5029097;28;20429;-80
2023/02/26 09:07:01;;;;;;;28.13;12.57;;;;;;;10.73;79.82;99828.00;5012330;28;20029;-80
2023/02/26 09:09:27;;;;;;;20.85;10.73;;;;;;;10.73;81.59;99821.06;5012815;28;20481;-80
2023/02/26 09:11:52;;;;;;;31.15;14.80;;;;;;;10.76;78.99;99828.63;5013797;28;20041;-80
2023/02/26 09:14:17;;;;;;;30.60;13.07;;;;;;;10.85;78.82;99820.28;5028868;28;20532;-80
2023/02/26 09:16:43;;;;;;;33.67;14.13;;;;;;;11.10;80.39;99837.66;5028859;28;20030;-80
2023/02/26 09:19:08;;;;;;;27.20;12.40;;;;;;;11.24;78.08;99828.22;5012346;28;20036;-80
2023/02/26 09:21:34;;;;;;;16.52;10.00;;;;;;;11.01;80.29;99796.88;5028660;28;20451;-80
2023/02/26 09:24:00;;;;;;;31.27;12.43;;;;;;;11.28;77.21;99821.91;5013744;28;20026;-80
2023/02/26 09:26:25;;;;;;;40.30;14.70;;;;;;;11.30;76.77;99828.63;4996048;28;20033;-80
2023/02/26 09:28:51;;;;;;;27.55;14.55;;;;;;;11.08;76.87;99795.53;5028634;28;20084;-80
2023/02/26 09:31:16;;;;;;;23.63;12.20;;;;;;;11.23;76.32;99836.91;5028600;28;20512;-80
2023/02/26 09:33:42;;;;;;;19.80;11.85;;;;;;;11.26;75.68;99842.72;5013540;28;20030;-80
2023/02/26 09:36:07;;;;;;;30.10;16.10;;;;;;;11.25;76.34;99815.16;5011897;28;20409;-80
2023/02/26 09:38:34;;;;;;;34.30;14.10;;;;;;;11.18;77.02;99794.00;5012118;28;20100;-80
2023/02/26 09:41:08;;;;;;;20.42;12.52;;;;;;;11.45;76.16;99806.09;5028430;28;20116;-80
2023/02/26 09:43:45;;;;;;;38.50;16.35;;;;;;;11.52;76.00;99859.16;5012115;28;20081;-80
2023/02/26 09:46:38;;;;;;;31.20;15.57;;;;;;;11.62;75.57;99865.41;5013505;28;20033;-80
2023/02/26 09:49:21;;;;;;;33.90;12.20;;;;;;;11.67;75.48;99865.09;5027475;28;20036;-80
2023/02/26 09:51:52;;;;;;;31.25;16.48;;;;;;;11.71;75.91;99854.44;5028621;28;20091;-80
2023/02/26 09:54:29;;;;;;;27.35;15.05;;;;;;;11.78;75.33;99854.84;5028606;28;20030;-80
2023/02/26 09:56:56;;;;;;;37.38;17.70;;;;;;;11.87;74.95;99858.63;5028791;28;20500;-80
2023/02/26 09:59:22;;;;;;;32.97;17.42;;;;;;;11.89;75.56;99856.78;5028070;28;20048;-80
2023/02/26 10:02:03;;;;;;;26.23;14.05;;;;;;;11.97;76.77;99859.69;4995407;28;20481;-80
2023/02/26 10:04:42;;;;;;;48.15;19.83;;;;;;;12.04;75.65;99863.53;5026145;28;20127;-80
2023/02/26 10:07:07;;;;;;;18.10;11.48;;;;;;;12.16;75.79;99870.47;5028158;28;20477;-80
2023/02/26 10:10:09;;;;;;;32.63;14.80;;;;;;;12.16;73.47;99870.47;5012810;28;20109;-80
2023/02/26 10:12:36;;;;;;;28.63;12.23;;;;;;;12.04;73.03;99866.13;5011501;28;20098;-80
2023/02/26 10:15:12;;;;;;;20.20;11.73;;;;;;;12.09;74.08;99866.63;5028034;28;20037;-80
2023/02/26 10:17:48;;;;;;;26.90;10.05;;;;;;;11.97;74.97;99823.41;5012786;28;20030;-80
2023/02/26 10:20:19;;;;;;;25.73;13.32;;;;;;;11.99;74.57;99870.78;5011113;28;20033;-80
2023/02/26 10:22:50;;;;;;;27.67;13.43;;;;;;;12.00;74.91;99864.69;5012338;28;20584;-80
2023/02/26 10:25:21;;;;;;;12.50;8.25;;;;;;;11.93;75.42;99837.50;5027600;28;20029;-80
2023/02/26 10:28:13;;;;;;;40.08;12.75;;;;;;;11.96;74.69;99851.09;5027719;28;20030;-80
2023/02/26 10:30:49;;;;;;;;;;;;;;;12.21;74.32;99876.22;5028047;28;20093;-80
2023/02/26 10:34:00;;;;;;;23.55;13.73;;;;;;;12.08;74.43;99877.94;5027233;28;20377;-80
2023/02/26 10:36:27;;;;;;;33.30;12.32;;;;;;;12.12;74.82;99879.41;4996758;28;20509;-80
2023/02/26 10:39:15;;;;;;;24.90;10.40;;;;;;;11.98;74.63;99862.16;5027366;28;20026;-80
2023/02/26 10:41:40;;;;;;;21.83;10.85;;;;;;;11.94;74.22;99876.28;5027560;28;20026;-80
2023/02/26 10:44:37;;;;;;;28.50;13.02;;;;;;;11.86;74.16;99888.91;5027536;28;20037;-80
2023/02/26 10:47:21;;;;;;;37.08;12.73;;;;;;;12.00;74.38;99893.19;5023958;28;20045;-80
2023/02/26 10:50:00;;;;;;;20.77;9.90;;;;;;;11.94;75.15;99893.59;5027369;28;20061;-80
2023/02/26 10:52:27;;;;;;;28.98;11.60;;;;;;;11.98;74.15;99892.44;5010528;28;20064;-80
2023/02/26 10:54:58;;;;;;;24.85;11.45;;;;;;;12.06;73.70;99891.00;5027218;28;20041;-80
2023/02/26 10:57:27;;;;;;;17.67;10.48;;;;;;;12.14;72.88;99887.91;5027172;28;20143;-80
2023/02/26 10:59:53;;;;;;;14.88;8.68;;;;;;;12.10;72.81;99880.47;5026611;28;20117;-80
2023/02/26 11:02:33;;;;;;;10.48;6.32;;;;;;;11.99;72.30;99873.38;5026890;28;20033;-80
2023/02/26 11:04:59;;;;;;;14.35;8.18;;;;;;;12.01;71.95;99885.31;5010612;28;20026;-80
2023/02/26 11:07:25;;;;;;;18.95;9.30;;;;;;;12.02;70.89;99868.00;5026776;28;20394;-80
2023/02/26 11:09:50;;;;;;;16.65;8.02;;;;;;;12.07;73.30;99858.13;5026980;28;20091;-80
2023/02/26 11:12:16;;;;;;;16.80;7.38;;;;;;;12.08;72.20;99849.41;5027064;28;20481;-80
2023/02/26 11:14:42;;;;;;;17.17;9.27;;;;;;;12.36;70.54;99876.91;5026865;28;20032;-80
2023/02/26 11:17:16;;;;;;;20.83;8.23;;;;;;;12.40;71.38;99874.97;5026421;28;20117;-80
2023/02/26 11:19:52;;;;;;;12.93;7.70;;;;;;;12.31;70.60;99869.47;5027111;28;20035;-80
2023/02/26 11:22:18;;;;;;;11.88;8.45;;;;;;;12.41;70.66;99889.59;5026741;28;20099;-80
2023/02/26 11:24:47;;;;;;;14.85;7.25;;;;;;;12.42;68.71;99902.44;5026473;28;20493;-80
2023/02/26 11:27:18;;;;;;;12.38;6.97;;;;;;;12.35;68.83;99898.59;5026816;28;20038;-80
2023/02/26 11:29:53;;;;;;;9.10;5.40;;;;;;;12.23;68.97;99878.69;5026721;28;20080;-80
2023/02/26 11:32:24;;;;;;;11.57;6.07;;;;;;;12.39;69.75;99913.03;5009881;28;20083;-80
2023/02/26 11:34:50;;;;;;;16.83;6.95;;;;;;;12.38;68.77;99911.34;5009973;28;20025;-80
2023/02/26 11:37:18;;;;;;;12.30;4.57;;;;;;;12.26;68.24;99917.38;5026631;28;20105;-80